Time;durP1;ratioP1;P1;durP2;ratioP2;P2;SDS_P1;SDS_P2;PMS_P1;PMS_P2;Temp;Humidity;BMP_temperature;BMP_pressure;BME280_temperature;BME280_humidity;BME280_pressure;Samples;Min_cycle;Max_cycle;Signal;HPM_P1;HPM_P2
2023/06/22 00:01:29;;;;;;;11.63;4.93;;;;;;;-142.57;63.24;115900.28;5013987;28;20092;-78
2023/06/22 00:03:54;;;;;;;14.05;5.53;;;;;;;-142.57;62.81;115900.28;4996051;28;20021;-79
2023/06/22 00:06:20;;;;;;;14.20;5.13;;;;;;;-142.57;62.26;115900.28;4994952;28;20103;-77
2023/06/22 00:08:45;;;;;;;13.15;5.72;;;;;;;-142.57;63.93;115900.28;5021499;28;20045;-86
2023/06/22 00:11:11;;;;;;;11.30;5.35;;;;;;;-142.57;65.22;115900.28;5016083;28;20052;-85
2023/06/22 00:13:37;;;;;;;11.57;5.20;;;;;;;-142.57;64.72;115900.28;5033255;28;20541;-77
2023/06/22 00:16:03;;;;;;;12.45;5.18;;;;;;;-142.57;65.14;115900.28;5034177;28;20493;-77
2023/06/22 00:18:30;;;;;;;17.15;5.82;;;;;;;-142.57;65.00;115900.28;5016093;28;20049;-81
2023/06/22 00:20:57;;;;;;;12.00;5.38;;;;;;;-142.57;64.75;115900.28;5033550;28;20113;-80
2023/06/22 00:23:23;;;;;;;11.88;5.28;;;;;;;-142.57;65.06;115900.28;5015828;28;20463;-83
2023/06/22 00:25:49;;;;;;;12.27;5.47;;;;;;;-142.57;65.59;115900.28;5033311;28;20112;-81
2023/06/22 00:28:15;;;;;;;18.27;5.30;;;;;;;-142.57;64.23;115900.28;5033653;28;20072;-83
2023/06/22 00:30:40;;;;;;;14.00;5.32;;;;;;;-142.57;63.49;115900.28;5033557;28;20188;-83
2023/06/22 00:33:07;;;;;;;11.57;5.05;;;;;;;-142.57;63.08;115900.28;5015397;28;20037;-82
2023/06/22 00:35:33;;;;;;;15.82;5.70;;;;;;;-142.57;64.09;115900.28;5015599;28;20034;-77
2023/06/22 00:38:00;;;;;;;14.82;5.60;;;;;;;-142.57;65.02;115900.28;5034417;28;20043;-85
2023/06/22 00:40:32;;;;;;;18.13;6.25;;;;;;;-142.57;65.23;115900.28;5017952;28;20179;-84
2023/06/22 00:42:58;;;;;;;;;;;;;;;-142.57;65.14;115900.28;5019048;28;20121;-88
2023/06/22 00:45:25;;;;;;;12.38;5.63;;;;;;;-142.57;64.66;115900.28;5037190;28;19960;-84
2023/06/22 00:47:52;;;;;;;10.38;5.22;;;;;;;-142.57;63.41;115900.28;5040951;28;20035;-83
2023/06/22 00:50:22;;;;;;;13.48;5.25;;;;;;;-142.57;62.52;115900.28;5051930;28;20064;-88
2023/06/22 00:52:52;;;;;;;13.60;5.07;;;;;;;-142.57;62.47;115900.28;5018126;28;20407;-86
2023/06/22 00:55:21;;;;;;;11.40;5.38;;;;;;;-142.57;62.41;115900.28;5040523;28;20042;-86
2023/06/22 00:57:47;;;;;;;13.02;5.55;;;;;;;-142.57;62.50;115900.28;5008078;28;20034;-85
2023/06/22 01:00:19;;;;;;;13.05;5.07;;;;;;;-142.57;62.01;115900.28;5025073;28;20040;-87
2023/06/22 01:02:46;;;;;;;;;;;;;;;-142.57;61.85;115900.28;5040918;28;20083;-88
2023/06/22 01:05:15;;;;;;;10.68;5.15;;;;;;;-142.57;62.47;115900.28;5037649;28;19911;-88
2023/06/22 01:07:52;;;;;;;12.25;4.65;;;;;;;-142.57;62.69;115900.28;5036244;28;20486;-86
2023/06/22 01:10:32;;;;;;;9.98;5.38;;;;;;;-142.57;62.74;115900.28;5006178;28;20034;-85
2023/06/22 01:13:04;;;;;;;15.43;5.60;;;;;;;-142.57;63.14;115900.28;5041759;28;20037;-82
2023/06/22 01:15:42;;;;;;;;;;;;;;;-142.57;63.12;115900.28;5049697;28;20033;-82
2023/06/22 01:18:09;;;;;;;14.80;5.43;;;;;;;-142.57;63.43;115900.28;5044428;28;19944;-84
2023/06/22 01:20:37;;;;;;;8.85;4.55;;;;;;;-142.57;63.20;115900.28;5025861;28;20072;-84
2023/06/22 01:23:28;;;;;;;14.27;5.63;;;;;;;-142.57;64.41;115900.28;5023012;28;20374;-86
2023/06/22 01:26:16;;;;;;;19.08;6.05;;;;;;;-142.57;65.39;115900.28;5000443;28;20050;-86
2023/06/22 01:28:52;;;;;;;14.20;5.35;;;;;;;-142.57;66.33;115900.28;4996897;28;20475;-86
2023/06/22 01:31:22;;;;;;;11.90;5.10;;;;;;;-142.57;66.30;115900.28;5015188;28;20034;-84
2023/06/22 01:33:54;;;;;;;10.93;4.93;;;;;;;-142.57;66.70;115900.28;5017022;28;20037;-85
2023/06/22 01:36:22;;;;;;;12.50;5.32;;;;;;;-142.57;66.70;115900.28;5016845;28;20050;-88
2023/06/22 01:38:49;;;;;;;9.38;5.22;;;;;;;-142.57;66.20;115900.28;4999140;28;20069;-89
2023/06/22 01:41:17;;;;;;;9.43;5.40;;;;;;;-142.57;66.83;115900.28;4999029;28;20036;-85
2023/06/22 01:43:43;;;;;;;15.43;5.80;;;;;;;-142.57;67.46;115900.28;4999526;28;20472;-86
2023/06/22 01:46:10;;;;;;;10.15;5.45;;;;;;;-142.57;67.37;115900.28;5016223;28;20080;-90
2023/06/22 01:48:35;;;;;;;11.15;5.57;;;;;;;-142.57;67.91;115900.28;5002380;28;20062;-86
2023/06/22 01:51:05;;;;;;;10.80;5.55;;;;;;;-142.57;66.82;115900.28;4997675;28;20030;-87
2023/06/22 01:53:30;;;;;;;20.38;5.57;;;;;;;-142.57;67.23;115900.28;5015519;28;20050;-86
2023/06/22 01:55:57;;;;;;;11.60;5.65;;;;;;;-142.57;66.69;115900.28;5033653;28;20049;-86
2023/06/22 01:58:26;;;;;;;9.63;5.80;;;;;;;-142.57;66.51;115900.28;5015236;28;20038;-85
2023/06/22 02:01:12;;;;;;;15.38;6.35;;;;;;;-142.57;66.28;115900.28;5013811;28;20034;-87
2023/06/22 02:03:43;;;;;;;13.20;6.55;;;;;;;-142.57;66.40;115900.28;5030843;28;20053;-87
2023/06/22 02:06:18;;;;;;;14.87;5.83;;;;;;;-142.57;66.66;115900.28;5033577;28;20046;-86
2023/06/22 02:08:50;;;;;;;13.10;6.07;;;;;;;-142.57;66.10;115900.28;5029423;28;20038;-88
2023/06/22 02:11:37;;;;;;;18.05;6.20;;;;;;;-142.57;65.84;115900.28;5006463;28;20034;-87
2023/06/22 02:14:06;;;;;;;15.93;6.05;;;;;;;-142.57;65.84;115900.28;5017537;28;20038;-87
2023/06/22 02:16:34;;;;;;;15.52;5.47;;;;;;;-142.57;65.85;115900.28;5053886;23;20061;-91
2023/06/22 02:19:05;;;;;;;16.65;6.38;;;;;;;-142.57;66.64;115900.28;5035846;28;20030;-88
2023/06/22 02:21:34;;;;;;;21.63;7.85;;;;;;;-142.57;67.13;115900.28;5034161;28;20441;-88
2023/06/22 02:24:00;;;;;;;21.08;8.32;;;;;;;-142.57;68.49;115900.28;5035111;28;20049;-86
2023/06/22 02:26:26;;;;;;;13.68;8.50;;;;;;;-142.57;68.20;115900.28;5035099;28;20033;-86
2023/06/22 02:28:53;;;;;;;23.30;9.38;;;;;;;-142.57;68.71;115900.28;5034737;28;20067;-85
2023/06/22 02:31:20;;;;;;;17.40;9.15;;;;;;;-142.57;69.02;115900.28;5040065;28;20244;-89
2023/06/22 02:33:46;;;;;;;15.95;8.80;;;;;;;-142.57;68.47;115900.28;5041402;28;20025;-87
2023/06/22 02:36:13;;;;;;;14.77;7.85;;;;;;;-142.57;68.20;115900.28;5039336;28;20032;-89
2023/06/22 02:38:47;;;;;;;17.27;8.45;;;;;;;-142.57;70.13;115900.28;5037781;28;20482;-88
2023/06/22 02:41:17;;;;;;;16.55;8.70;;;;;;;-142.57;71.25;115900.28;5036406;28;20040;-86
2023/06/22 02:43:44;;;;;;;16.60;8.77;;;;;;;-142.57;71.34;115900.28;5021700;28;20483;-86
2023/06/22 02:46:09;;;;;;;24.30;8.70;;;;;;;-142.57;70.71;115900.28;5039020;28;20045;-85
2023/06/22 02:48:35;;;;;;;19.17;8.55;;;;;;;-142.57;69.77;115900.28;5039156;28;20030;-84
2023/06/22 02:51:01;;;;;;;21.63;8.60;;;;;;;-142.57;68.96;115900.28;5037870;28;20044;-86
2023/06/22 02:53:27;;;;;;;15.25;8.65;;;;;;;-142.57;69.83;115900.28;5037169;28;20121;-85
2023/06/22 02:55:52;;;;;;;19.60;9.02;;;;;;;-142.57;71.35;115900.28;5035907;28;20498;-86
2023/06/22 02:58:18;;;;;;;16.88;8.80;;;;;;;-142.57;72.54;115900.28;5038145;28;20037;-85
2023/06/22 03:00:44;;;;;;;18.60;8.35;;;;;;;-142.57;72.52;115900.28;5037293;28;20060;-83
2023/06/22 03:03:09;;;;;;;22.88;8.13;;;;;;;-142.57;74.01;115900.28;5018808;28;21160;-86
2023/06/22 03:05:35;;;;;;;14.48;7.70;;;;;;;-142.57;75.39;115900.28;5036969;28;20459;-87
2023/06/22 03:08:01;;;;;;;18.23;8.88;;;;;;;-142.57;76.01;115900.28;5037652;28;20120;-86
2023/06/22 03:10:30;;;;;;;19.50;8.75;;;;;;;-142.57;77.08;115900.28;5036896;28;20137;-86
2023/06/22 03:12:56;;;;;;;17.20;9.15;;;;;;;-142.57;77.25;115900.28;5035745;28;20108;-88
2023/06/22 03:15:21;;;;;;;16.63;8.52;;;;;;;-142.57;78.38;115900.28;5034851;28;20132;-85
2023/06/22 03:17:47;;;;;;;16.95;9.68;;;;;;;-142.57;78.32;115900.28;5035913;28;20033;-87
2023/06/22 03:20:12;;;;;;;17.38;8.50;;;;;;;-142.57;79.68;115900.28;5036003;28;20045;-85
2023/06/22 03:22:39;;;;;;;18.50;8.43;;;;;;;-142.57;80.97;115900.28;5036292;28;20037;-84
2023/06/22 03:25:09;;;;;;;19.10;8.18;;;;;;;-142.57;80.36;115900.28;5034506;28;20064;-86
2023/06/22 03:27:40;;;;;;;12.10;7.85;;;;;;;-142.57;82.35;115900.28;5034741;28;20430;-85
2023/06/22 03:30:09;;;;;;;13.88;7.25;;;;;;;-142.57;83.59;115900.28;5051288;28;20423;-86
2023/06/22 03:32:35;;;;;;;16.70;7.10;;;;;;;-142.57;84.56;115900.28;5035828;28;20034;-86
2023/06/22 03:35:01;;;;;;;17.67;8.57;;;;;;;-142.57;85.71;115900.28;5035701;28;20117;-84
2023/06/22 03:37:27;;;;;;;14.48;7.90;;;;;;;-142.57;87.33;115900.28;5034323;28;20033;-84
2023/06/22 03:39:53;;;;;;;15.63;7.93;;;;;;;-142.57;88.37;115900.28;5016508;28;20030;-85
2023/06/22 03:42:19;;;;;;;21.60;9.13;;;;;;;-142.57;89.83;115900.28;5034303;28;20490;-87
2023/06/22 03:44:46;;;;;;;15.43;8.70;;;;;;;-142.57;90.48;115900.28;5033912;28;20203;-84
2023/06/22 03:47:12;;;;;;;17.77;9.40;;;;;;;-142.57;91.16;115900.28;5033967;28;20059;-83
2023/06/22 03:49:37;;;;;;;20.58;8.95;;;;;;;-142.57;91.00;115900.28;5034084;28;20033;-84
2023/06/22 03:52:03;;;;;;;14.25;8.07;;;;;;;-142.57;90.90;115900.28;5034832;28;20041;-84
2023/06/22 03:54:29;;;;;;;16.05;8.60;;;;;;;-142.57;90.67;115900.28;5034349;28;20097;-85
2023/06/22 03:56:56;;;;;;;19.38;8.60;;;;;;;-142.57;89.35;115900.28;5034483;28;20052;-84
2023/06/22 03:59:22;;;;;;;14.52;7.85;;;;;;;-142.57;89.24;115900.28;5034324;28;20033;-87
2023/06/22 04:01:51;;;;;;;14.15;7.00;;;;;;;-142.57;88.66;115900.28;5035259;28;20135;-85
2023/06/22 04:04:19;;;;;;;18.02;7.13;;;;;;;-142.57;88.90;115900.28;5034979;28;20512;-83
2023/06/22 04:06:45;;;;;;;13.93;7.32;;;;;;;-142.57;90.45;115900.28;5034802;28;20037;-86
2023/06/22 04:09:10;;;;;;;16.30;7.75;;;;;;;-142.57;89.88;115900.28;5033557;28;20084;-83
2023/06/22 04:11:39;;;;;;;15.57;7.80;;;;;;;-142.57;89.19;115900.28;5034834;28;20029;-84
2023/06/22 04:14:04;;;;;;;11.50;6.45;;;;;;;-142.57;88.42;115900.28;5034372;28;20065;-83
2023/06/22 04:16:30;;;;;;;13.82;7.05;;;;;;;-142.57;87.51;115900.28;5034777;28;20529;-85
2023/06/22 04:18:55;;;;;;;12.68;6.72;;;;;;;-142.57;87.62;115900.28;5035538;28;20105;-85
2023/06/22 04:21:21;;;;;;;12.25;6.57;;;;;;;-142.57;87.65;115900.28;5035089;28;20037;-86
2023/06/22 04:23:46;;;;;;;10.73;7.00;;;;;;;-142.57;86.25;115900.28;5035718;28;20067;-86
2023/06/22 04:26:16;;;;;;;13.32;6.60;;;;;;;-142.57;84.92;115900.28;5036838;28;20465;-85
2023/06/22 04:28:42;;;;;;;14.05;6.43;;;;;;;-142.57;84.53;115900.28;5035581;28;20036;-86
2023/06/22 04:31:08;;;;;;;11.40;6.35;;;;;;;-142.57;84.21;115900.28;5036673;28;20029;-84
2023/06/22 04:33:33;;;;;;;17.00;5.72;;;;;;;-142.57;84.59;115900.28;5034693;28;20033;-86
2023/06/22 04:36:01;;;;;;;14.90;6.75;;;;;;;-142.57;84.09;115900.28;5035187;28;20126;-88
2023/06/22 04:38:26;;;;;;;20.25;7.03;;;;;;;-142.57;84.20;115900.28;5038189;28;20069;-86
2023/06/22 04:40:53;;;;;;;15.45;6.00;;;;;;;-142.57;84.77;115900.28;5042489;28;20045;-83
2023/06/22 04:43:21;;;;;;;15.13;6.30;;;;;;;-142.57;84.50;115900.28;5038898;28;20447;-85
2023/06/22 04:45:52;;;;;;;20.23;7.10;;;;;;;-142.57;85.23;115900.28;5035826;28;20083;-83
2023/06/22 04:48:17;;;;;;;16.95;6.78;;;;;;;-142.57;84.63;115900.28;5041492;28;20042;-82
2023/06/22 04:50:44;;;;;;;16.42;6.32;;;;;;;-142.57;83.93;115900.28;5040916;28;20064;-85
2023/06/22 04:53:12;;;;;;;17.50;6.93;;;;;;;-142.57;82.72;115900.28;5036852;28;20431;-84
2023/06/22 04:55:41;;;;;;;17.15;6.28;;;;;;;-142.57;81.94;115900.28;5034020;28;20037;-83
2023/06/22 04:58:07;;;;;;;19.73;6.82;;;;;;;-142.57;81.82;115900.28;5034558;28;20544;-81
2023/06/22 05:00:36;;;;;;;16.98;7.93;;;;;;;-142.57;82.19;115900.28;5035541;28;20108;-85
2023/06/22 05:03:03;;;;;;;15.82;6.78;;;;;;;-142.57;81.82;115900.28;5034336;28;20042;-85
2023/06/22 05:05:29;;;;;;;20.92;6.90;;;;;;;-142.57;81.27;115900.28;5035946;28;20037;-85
2023/06/22 05:07:59;;;;;;;23.13;6.88;;;;;;;-142.57;80.45;115900.28;5035890;28;20033;-85
2023/06/22 05:10:25;;;;;;;27.60;6.38;;;;;;;-142.57;80.38;115900.28;5037170;28;20367;-86
2023/06/22 05:12:51;;;;;;;20.40;6.85;;;;;;;-142.57;79.81;115900.28;5037243;28;20087;-86
2023/06/22 05:15:20;;;;;;;19.55;6.22;;;;;;;-142.57;79.25;115900.28;5040094;28;20033;-90
2023/06/22 05:17:46;;;;;;;21.50;7.03;;;;;;;-142.57;77.80;115900.28;5043014;28;20029;-85
2023/06/22 05:20:12;;;;;;;18.05;6.40;;;;;;;-142.57;77.13;115900.28;5044460;28;20037;-87
2023/06/22 05:22:46;;;;;;;24.85;7.32;;;;;;;-142.57;77.68;115900.28;5033808;23;20061;-86
2023/06/22 05:25:17;;;;;;;18.90;7.28;;;;;;;-142.57;77.87;115900.28;5043245;28;20029;-86
2023/06/22 05:27:45;;;;;;;21.75;6.95;;;;;;;-142.57;77.65;115900.28;5040017;28;20037;-88
2023/06/22 05:30:11;;;;;;;23.92;7.05;;;;;;;-142.57;76.83;115900.28;5038196;28;20052;-88
2023/06/22 05:32:37;;;;;;;18.27;6.65;;;;;;;-142.57;77.17;115900.28;5040981;28;20033;-88
2023/06/22 05:35:05;;;;;;;33.28;6.80;;;;;;;-142.57;76.82;115900.28;5040674;28;20124;-88
2023/06/22 05:37:31;;;;;;;22.75;7.03;;;;;;;-142.57;76.82;115900.28;5040861;28;20099;-86
2023/06/22 05:40:12;;;;;;;15.43;6.50;;;;;;;-142.57;75.93;115900.28;5042221;28;20037;-85
2023/06/22 05:42:40;;;;;;;20.58;6.60;;;;;;;-142.57;75.97;115900.28;5045995;28;20033;-86
2023/06/22 05:45:15;;;;;;;14.60;6.03;;;;;;;-142.57;73.76;115900.28;5047288;28;20453;-86
2023/06/22 05:47:47;;;;;;;25.70;6.90;;;;;;;-142.57;72.68;115900.28;5044285;28;20038;-86
2023/06/22 05:50:16;;;;;;;15.80;6.65;;;;;;;-142.57;72.22;115900.28;5026042;28;20505;-86
2023/06/22 05:52:49;;;;;;;10.38;6.25;;;;;;;-142.57;72.77;115900.28;5042564;28;20041;-84
2023/06/22 05:55:18;;;;;;;17.20;5.63;;;;;;;-142.57;72.62;115900.28;5036873;28;20123;-88
2023/06/22 05:57:48;;;;;;;17.30;6.65;;;;;;;-142.57;72.75;115900.28;5019669;28;20490;-85
2023/06/22 06:02:43;;;;;;;14.77;6.27;;;;;;;-142.57;71.89;115900.28;5037614;23;20110;-86
2023/06/22 06:05:13;;;;;;;20.48;6.72;;;;;;;-142.57;71.07;115900.28;5022206;28;20097;-88
2023/06/22 06:07:39;;;;;;;18.48;6.88;;;;;;;-142.57;70.28;115900.28;5025272;28;20025;-87
2023/06/22 06:10:11;;;;;;;14.15;6.38;;;;;;;-142.57;69.04;115900.28;5032059;28;20025;-86
2023/06/22 06:12:40;;;;;;;22.73;6.40;;;;;;;-142.57;66.98;115900.28;5026241;28;20089;-89
2023/06/22 06:15:07;;;;;;;21.48;6.85;;;;;;;-142.57;65.92;115900.28;5028081;28;20042;-87
2023/06/22 06:17:33;;;;;;;19.00;6.00;;;;;;;-142.57;64.37;115900.28;5029783;28;20042;-87
2023/06/22 06:22:29;;;;;;;15.02;5.25;;;;;;;-142.57;60.17;115900.28;5026585;28;20054;-88
2023/06/22 06:24:58;;;;;;;13.60;6.10;;;;;;;-142.57;58.49;115900.28;5026894;28;20046;-88
2023/06/22 06:27:28;;;;;;;12.80;5.70;;;;;;;-142.57;57.70;115900.28;5026061;28;20110;-90
2023/06/22 06:30:05;;;;;;;14.95;5.70;;;;;;;-142.57;54.69;115900.28;5026414;28;20034;-88
2023/06/22 06:32:33;;;;;;;13.77;5.47;;;;;;;-142.57;53.20;115900.28;5023568;28;20033;-88
2023/06/22 06:34:59;;;;;;;19.45;5.43;;;;;;;-142.57;51.45;115900.28;5022891;28;20037;-88
2023/06/22 06:37:24;;;;;;;17.23;5.50;;;;;;;-142.57;49.11;115900.28;5021288;28;20034;-86
2023/06/22 06:40:10;;;;;;;11.18;4.70;;;;;;;-142.57;45.47;115900.28;5022720;28;20049;-89
2023/06/22 06:42:37;;;;;;;9.98;3.85;;;;;;;-142.57;46.68;115900.28;5020247;28;20084;-86
2023/06/22 06:45:05;;;;;;;11.98;5.10;;;;;;;-142.57;45.53;115900.28;5029491;28;20053;-87
2023/06/22 06:47:31;;;;;;;13.38;5.07;;;;;;;-142.57;43.35;115900.28;5025599;28;20041;-88
2023/06/22 06:49:57;;;;;;;12.02;5.35;;;;;;;-142.57;41.46;115900.28;5022826;28;20034;-86
2023/06/22 06:52:23;;;;;;;12.93;4.95;;;;;;;-142.57;40.47;115900.28;5024972;28;20041;-86
2023/06/22 06:54:51;;;;;;;10.27;5.10;;;;;;;-142.57;40.65;115900.28;5025931;28;20080;-88
2023/06/22 06:57:20;;;;;;;12.75;4.68;;;;;;;-142.57;37.54;115900.28;5024799;28;20049;-85
2023/06/22 06:59:46;;;;;;;9.82;4.20;;;;;;;-142.57;37.80;115900.28;5021769;28;20040;-89
2023/06/22 07:02:16;;;;;;;15.73;4.68;;;;;;;-142.57;38.75;115900.28;5025413;28;20049;-90
2023/06/22 07:04:41;;;;;;;9.88;5.10;;;;;;;-142.57;38.08;115900.28;5027547;28;20045;-89
2023/06/22 07:07:10;;;;;;;18.58;4.93;;;;;;;-142.57;37.15;115900.28;5022099;28;20095;-88
2023/06/22 07:10:01;;;;;;;21.38;4.90;;;;;;;-142.57;35.83;115900.28;5008020;28;20034;-90
2023/06/22 07:12:36;;;;;;;18.60;4.43;;;;;;;-142.57;36.89;115900.28;4984307;28;20038;-88
2023/06/22 07:15:46;;;;;;;14.07;5.03;;;;;;;-142.57;37.22;115900.28;5021846;28;20034;-93
2023/06/22 07:18:28;;;;;;;11.70;4.57;;;;;;;-142.57;36.09;115900.28;4944920;29;20484;-91
2023/06/22 07:21:07;;;;;;;10.43;4.35;;;;;;;-142.57;33.96;115900.28;4944789;29;20050;-91
2023/06/22 07:26:27;;;;;;;15.30;4.20;;;;;;;-142.57;34.23;115900.28;4464238;26;20050;-90
2023/06/22 07:28:57;;;;;;;12.27;4.75;;;;;;;-142.57;34.65;115900.28;5029345;28;20038;-90
2023/06/22 07:31:34;;;;;;;19.38;4.30;;;;;;;-142.57;34.81;115900.28;4995061;28;20042;-92
2023/06/22 07:34:00;;;;;;;14.43;4.53;;;;;;;-142.57;34.62;115900.28;5019366;28;20479;-91
2023/06/22 07:36:26;;;;;;;17.30;5.13;;;;;;;-142.57;33.95;115900.28;5018153;28;20080;-89
2023/06/22 07:38:52;;;;;;;17.85;4.63;;;;;;;-142.57;33.78;115900.28;5017909;28;20490;-91
2023/06/22 07:41:19;;;;;;;14.38;4.78;;;;;;;-142.57;33.05;115900.28;5017728;28;20036;-90
2023/06/22 07:43:45;;;;;;;18.42;4.60;;;;;;;-142.57;33.08;115900.28;5001605;28;20092;-86
2023/06/22 07:46:10;;;;;;;14.65;4.82;;;;;;;-142.57;32.14;115900.28;5015737;28;20046;-85
2023/06/22 07:48:37;;;;;;;15.25;4.60;;;;;;;-142.57;32.52;115900.28;5014995;28;20487;-85
2023/06/22 07:51:02;;;;;;;14.43;4.60;;;;;;;-142.57;32.73;115900.28;5016286;28;20038;-84
2023/06/22 07:53:28;;;;;;;10.82;4.93;;;;;;;-142.57;32.01;115900.28;5015224;28;20033;-86
2023/06/22 07:55:53;;;;;;;10.52;4.30;;;;;;;-142.57;32.08;115900.28;5013475;28;20100;-87
2023/06/22 07:58:20;;;;;;;18.55;4.82;;;;;;;-142.57;31.70;115900.28;5017721;28;20449;-85
2023/06/22 08:00:46;;;;;;;18.10;5.13;;;;;;;-142.57;32.43;115900.28;5016264;28;20530;-84
2023/06/22 08:03:13;;;;;;;13.45;4.93;;;;;;;-142.57;33.26;115900.28;4997386;28;20274;-82
2023/06/22 08:05:39;;;;;;;13.57;5.53;;;;;;;-142.57;32.99;115900.28;5003326;28;20033;-86
2023/06/22 08:08:04;;;;;;;11.32;5.07;;;;;;;-142.57;33.25;115900.28;5003053;28;20046;-83
2023/06/22 08:10:30;;;;;;;22.45;5.20;;;;;;;-142.57;33.19;115900.28;4996050;28;20094;-84
2023/06/22 08:12:55;;;;;;;18.58;5.13;;;;;;;-142.57;34.06;115900.28;5000624;28;20030;-83
2023/06/22 08:15:21;;;;;;;10.60;4.70;;;;;;;-142.57;34.15;115900.28;5005377;28;20042;-87
2023/06/22 08:17:47;;;;;;;18.17;4.90;;;;;;;-142.57;33.92;115900.28;4996710;28;20045;-85
2023/06/22 08:20:14;;;;;;;18.02;4.68;;;;;;;-142.57;33.70;115900.28;4993769;28;20030;-87
2023/06/22 08:22:41;;;;;;;18.73;5.50;;;;;;;-142.57;33.31;115900.28;4996435;28;20488;-84
2023/06/22 08:25:07;;;;;;;13.18;4.47;;;;;;;-142.57;32.93;115900.28;4995546;28;20038;-84
2023/06/22 08:27:32;;;;;;;14.63;4.68;;;;;;;-142.57;33.16;115900.28;4995285;28;20149;-84
2023/06/22 08:29:59;;;;;;;13.82;5.07;;;;;;;-142.57;32.64;115900.28;4996347;28;20511;-84
2023/06/22 08:32:27;;;;;;;15.93;5.35;;;;;;;-142.57;30.93;115900.28;4995259;28;20064;-84
2023/06/22 08:34:53;;;;;;;15.25;5.32;;;;;;;-142.57;30.58;115900.28;5000039;28;20088;-83
2023/06/22 08:37:19;;;;;;;13.73;5.00;;;;;;;-142.57;31.38;115900.28;5017883;28;20110;-83
2023/06/22 08:39:46;;;;;;;17.25;4.43;;;;;;;-142.57;31.74;115900.28;5020080;28;20113;-86
2023/06/22 08:42:12;;;;;;;19.77;5.00;;;;;;;-142.57;31.93;115900.28;5025516;28;20078;-84
2023/06/22 08:44:37;;;;;;;13.93;4.50;;;;;;;-142.57;32.18;115900.28;5025080;28;20029;-84
2023/06/22 08:47:03;;;;;;;18.35;5.03;;;;;;;-142.57;31.86;115900.28;5023818;28;20045;-83
2023/06/22 08:49:29;;;;;;;20.88;4.70;;;;;;;-142.57;31.53;115900.28;5022835;28;20041;-83
2023/06/22 08:51:56;;;;;;;12.80;4.45;;;;;;;-142.57;31.27;115900.28;5018575;28;20038;-81
2023/06/22 08:54:22;;;;;;;11.40;5.05;;;;;;;-142.57;31.23;115900.28;5010720;28;20041;-80
2023/06/22 08:56:47;;;;;;;16.98;5.07;;;;;;;-142.57;30.50;115900.28;4996996;28;20054;-82
2023/06/22 08:59:13;;;;;;;22.15;5.07;;;;;;;-142.57;30.86;115900.28;5000070;28;20104;-84
2023/06/22 09:01:38;;;;;;;34.30;6.18;;;;;;;-142.57;30.39;115900.28;4999432;28;20046;-82
2023/06/22 09:04:05;;;;;;;14.23;5.13;;;;;;;-142.57;31.14;115900.28;5001843;28;20519;-83
2023/06/22 09:06:31;;;;;;;14.25;4.65;;;;;;;-142.57;30.92;115900.28;5018194;28;20129;-84
2023/06/22 09:08:59;;;;;;;14.63;5.03;;;;;;;-142.57;30.52;115900.28;5017964;28;20490;-85
2023/06/22 09:11:25;;;;;;;16.95;5.30;;;;;;;-142.57;30.44;115900.28;5012420;28;20045;-83
2023/06/22 09:13:52;;;;;;;17.05;4.63;;;;;;;-142.57;30.94;115900.28;5021442;28;20123;-83
2023/06/22 09:16:18;;;;;;;23.73;5.40;;;;;;;-142.57;30.74;115900.28;5014622;28;20076;-84
2023/06/22 09:18:47;;;;;;;13.75;4.82;;;;;;;-142.57;30.79;115900.28;4998955;28;20034;-87
2023/06/22 09:21:13;;;;;;;8.63;4.63;;;;;;;-142.57;30.75;115900.28;5000317;28;20030;-87
2023/06/22 09:23:38;;;;;;;17.30;5.03;;;;;;;-142.57;30.96;115900.28;5018908;28;20065;-81
2023/06/22 09:26:08;;;;;;;15.95;5.07;;;;;;;-142.57;31.03;115900.28;5014639;28;20038;-84
2023/06/22 09:28:34;;;;;;;14.27;4.97;;;;;;;-142.57;30.08;115900.28;5016221;28;20104;-87
2023/06/22 09:31:00;;;;;;;14.25;4.75;;;;;;;-142.57;30.65;115900.28;5019344;28;20044;-86
2023/06/22 09:33:26;;;;;;;10.98;4.45;;;;;;;-142.57;30.41;115900.28;5002110;28;20022;-83
2023/06/22 09:35:52;;;;;;;10.77;4.70;;;;;;;-142.57;30.62;115900.28;5007521;28;20042;-86
2023/06/22 09:38:17;;;;;;;10.65;4.53;;;;;;;-142.57;30.03;115900.28;5013821;28;20039;-82
2023/06/22 09:40:43;;;;;;;13.32;4.72;;;;;;;-142.57;30.15;115900.28;5013644;28;20034;-80
2023/06/22 09:43:09;;;;;;;16.30;4.80;;;;;;;-142.57;30.24;115900.28;5011803;28;20122;-85
2023/06/22 09:45:34;;;;;;;18.50;5.22;;;;;;;-142.57;30.21;115900.28;5012938;28;20525;-85
2023/06/22 09:48:00;;;;;;;9.63;4.88;;;;;;;-142.57;31.31;115900.28;5013514;28;20089;-81
2023/06/22 09:50:25;;;;;;;18.00;5.35;;;;;;;-142.57;30.86;115900.28;5015897;28;20061;-84
2023/06/22 09:52:54;;;;;;;16.85;4.75;;;;;;;-142.57;30.63;115900.28;4998631;28;20038;-81
2023/06/22 09:55:20;;;;;;;16.45;5.18;;;;;;;-142.57;30.34;115900.28;4994294;28;20091;-82
2023/06/22 09:57:46;;;;;;;16.88;5.45;;;;;;;-142.57;30.92;115900.28;4994815;28;20613;-85
2023/06/22 10:00:13;;;;;;;17.92;4.63;;;;;;;-142.57;31.46;115900.28;4996608;28;20040;-85
2023/06/22 10:02:39;;;;;;;24.33;5.55;;;;;;;-142.57;31.70;115900.28;4995817;28;20065;-84
2023/06/22 10:05:05;;;;;;;14.15;5.03;;;;;;;-142.57;31.87;115900.28;5012187;28;20037;-85
2023/06/22 10:07:31;;;;;;;13.90;4.75;;;;;;;-142.57;31.32;115900.28;5011858;28;20030;-85
2023/06/22 10:09:59;;;;;;;12.68;5.43;;;;;;;-142.57;31.82;115900.28;5014866;28;20034;-84
2023/06/22 10:12:27;;;;;;;16.52;4.88;;;;;;;-142.57;31.97;115900.28;5013669;28;20128;-83
2023/06/22 10:14:52;;;;;;;20.17;6.38;;;;;;;-142.57;32.06;115900.28;5013483;28;20479;-82
2023/06/22 10:17:18;;;;;;;15.10;5.28;;;;;;;-142.57;31.74;115900.28;5014987;28;20046;-82
2023/06/22 10:19:44;;;;;;;13.50;4.93;;;;;;;-142.57;31.55;115900.28;5017562;28;20030;-86
2023/06/22 10:22:09;;;;;;;12.45;4.88;;;;;;;-142.57;31.67;115900.28;5013488;28;20408;-86
2023/06/22 10:24:44;;;;;;;18.98;5.20;;;;;;;-142.57;32.18;115900.28;4995681;28;20038;-85
2023/06/22 10:27:31;;;;;;;16.25;5.38;;;;;;;-142.57;31.85;115900.28;4997245;28;20129;-88
2023/06/22 10:29:56;;;;;;;16.33;5.68;;;;;;;-142.57;32.02;115900.28;5007773;28;20041;-86
2023/06/22 10:32:22;;;;;;;23.70;5.28;;;;;;;-142.57;32.37;115900.28;4999134;28;20078;-86
2023/06/22 10:34:47;;;;;;;9.38;4.97;;;;;;;-142.57;32.45;115900.28;5001338;28;20034;-85
2023/06/22 10:37:13;;;;;;;17.77;5.55;;;;;;;-142.57;31.88;115900.28;4994494;28;20026;-84
2023/06/22 10:39:38;;;;;;;16.85;7.40;;;;;;;-142.57;32.17;115900.28;4995004;28;20030;-82
2023/06/22 10:42:04;;;;;;;13.15;5.03;;;;;;;-142.57;31.48;115900.28;4993627;28;20120;-84
2023/06/22 10:44:30;;;;;;;15.82;5.15;;;;;;;-142.57;31.55;115900.28;4994572;28;20488;-81
2023/06/22 10:46:55;;;;;;;17.85;6.38;;;;;;;-142.57;32.30;115900.28;4994108;28;20030;-84
2023/06/22 10:49:21;;;;;;;14.40;4.85;;;;;;;-142.57;32.17;115900.28;4994367;28;20390;-84
2023/06/22 10:51:46;;;;;;;19.20;6.03;;;;;;;-142.57;32.28;115900.28;4997811;28;20034;-85
2023/06/22 10:54:13;;;;;;;12.93;5.13;;;;;;;-142.57;31.49;115900.28;4998133;28;20042;-87
2023/06/22 10:56:40;;;;;;;16.48;5.90;;;;;;;-142.57;32.19;115900.28;4998494;28;20034;-86
2023/06/22 10:59:05;;;;;;;16.75;6.05;;;;;;;-142.57;32.18;115900.28;4997608;28;20399;-83
2023/06/22 11:01:34;;;;;;;14.45;5.45;;;;;;;-142.57;31.55;115900.28;4998379;28;20022;-87
2023/06/22 11:03:59;;;;;;;19.42;6.00;;;;;;;-142.57;32.11;115900.28;4998336;28;20399;-86
2023/06/22 11:06:25;;;;;;;17.20;5.60;;;;;;;-142.57;31.84;115900.28;5015163;28;20042;-86
2023/06/22 11:08:51;;;;;;;21.02;5.63;;;;;;;-142.57;31.83;115900.28;5022086;28;20129;-87
2023/06/22 11:11:17;;;;;;;22.52;5.60;;;;;;;-142.57;31.92;115900.28;5000707;28;20030;-91
2023/06/22 11:13:46;;;;;;;12.02;5.32;;;;;;;-142.57;31.42;115900.28;4997327;28;20081;-88